Arnett, TX

12:30 PM CDT on September 19, 2014 (GMT -0500)
Rhudys on Cedar Ridge | Change Station
CLOSE
Current Station
Personal Weather Station
Location: Gatesville, TX
Elevation: 1043 ft
Nearby Weather Stations

Elev 1043 ft 31.45 °N, 97.70 °W | Updated 4 seconds ago

Overcast
Overcast
75.3 °F
Feels Like 74 °F
N
1.2
Wind Variable Wind from South
Gusts 1.2 mph

Today
High -- | Low -- °F
--% Chance of Precip.
Yesterday
High -- | Low -- °F
Precip. -- in
7:17 AM 7:31 PM
Waning Crescent, 18% visible
Pressure 29.99 in
Visibility 9.0 miles
Clouds Mostly Cloudy 800 ft
Heat Index 74 °F
Dew Point 73 °F
Humidity 92%
Rainfall 0.10 in
Snow Depth Not available.
UV 5 out of 12
Pollen 10.00 out of 12
Ozone Good
PM2.5 Good
Flu Activity Not available.
METAR KGOP 191710Z AUTO 09004KT 9SM BKN008 24/22 A2999 RMK AO2

More Conditions Fewer Conditions

Pressure 29.99 in
Visibility 9.0 miles
Clouds Mostly Cloudy 800 ft
Heat Index 74 °F
Dew Point 73 °F
Humidity 92%
Rainfall 0.10 in
Snow Depth Not available.
UV 5 out of 12
Pollen 10.00 out of 12
Ozone Good
PM2.5 Good
Flu Activity Not available.
METAR KGOP 191710Z AUTO 09004KT 9SM BKN008 24/22 A2999 RMK AO2

More Conditions Fewer Conditions

Nowcast | as of 11:27 am CDT on September 19, 2014

Most of the region will remain under low clouds through early afternoon as temperatures warm slowly into the mid 80s by 3 PM. The best area for afternoon showers and thunderstorms will be southwest of a Graham to Hillsboro and Centerville line. Slow moving storms will be capable of producing heavy rainfall which could cause some water problems in poor draining areas.

×

10-Day Weather Forecast

Almanac

Astronomy

Sep. 19, 2014 Rise Set
Actual Time 7:17 AM CDT 7:31 PM CDT
Civil Twilight 6:53 AM CDT 7:55 PM CDT
Nautical Twilight 6:24 AM CDT 8:24 PM CDT
Astronomical Twilight 5:56 AM CDT 8:52 PM CDT
Moon 3:16 AM CDT 4:49 PM CDT
Length of Visible Light 13h 02m
Length of Day
12h 13m
Tomorrow will be 1m 54s shorter.
Waning Crescent, 18% of the Moon is Illuminated
Today
Waning Crescent
Sep 24
New
Oct 1
First Quarter
Oct 8
Full
Oct 15
Last Quarter

Today's Extremes

State Highs State Lows

Community

WunderPhotos

Upload Photos

1,754,663 photos uploaded!

Nearby

Air Quality

  Air Quality AQ Index Pollutant
Yesterday Good
OZONE
Yesterday Good
PM2.5
Current Good
PM2.5
Current Good
OZONE
Friday Good
PM10
Friday Good
OZONE
Saturday Good
PM10
Saturday Good
OZONE
Sunday Good
PM10
Sunday Good
OZONE
Monday Moderate
OZONE
Monday Good
PM10
Tuesday Moderate
OZONE
Tuesday Good
PM10

Snow Depth

Station Depth Elevation
No new snow has been reported.

Earthquake Activity

City Distance Mag. Time & Date
No recent earthquake activity has been reported nearby.
Minimum magnitude displayed is 2.5.

Coastal Water Temperatures

Place Temperature
No Stations Reporting

Nearby Weather Stations